Time;durP1;ratioP1;P1;durP2;ratioP2;P2;SDS_P1;SDS_P2;PMS_P1;PMS_P2;Temp;Humidity;BMP_temperature;BMP_pressure;BME280_temperature;BME280_humidity;BME280_pressure;Samples;Min_cycle;Max_cycle;Signal;HPM_P1;HPM_P2
2022/10/27 00:02:59;;;;;;;4.57;1.00;;;21.10;90.20;;;;;;10518129;28;20101;-42
2022/10/27 00:08:03;;;;;;;2.88;0.93;;;21.40;90.30;;;;;;10509749;28;20772;-43
2022/10/27 00:13:06;;;;;;;4.05;1.27;;;21.10;90.20;;;;;;10530226;28;20127;-41
2022/10/27 00:18:09;;;;;;;7.97;1.45;;;21.30;90.30;;;;;;10517865;28;20420;-42
2022/10/27 00:23:12;;;;;;;6.47;1.00;;;21.40;90.30;;;;;;10531921;28;20079;-42
2022/10/27 00:28:15;;;;;;;3.33;0.98;;;21.20;90.30;;;;;;10532970;28;20075;-43
2022/10/27 00:33:16;;;;;;;;;;;21.30;90.50;;;;;;10534977;28;20044;-40
2022/10/27 00:38:21;;;;;;;5.63;1.00;;;21.30;90.20;;;;;;10533833;28;20309;-40
2022/10/27 00:43:25;;;;;;;4.28;1.25;;;21.30;90.30;;;;;;10539826;28;20075;-43
2022/10/27 00:48:28;;;;;;;3.33;1.05;;;22.00;90.40;;;;;;10541326;28;20195;-40
2022/10/27 00:53:32;;;;;;;4.20;0.85;;;20.70;90.20;;;;;;10524665;28;20127;-40
2022/10/27 00:58:34;;;;;;;3.63;1.40;;;20.90;90.40;;;;;;10529704;28;20040;-41
2022/10/27 01:03:37;;;;;;;4.00;0.80;;;20.80;90.40;;;;;;10516491;28;20139;-39
2022/10/27 01:08:41;;;;;;;3.38;1.67;;;21.20;90.40;;;;;;10534480;28;20047;-38
2022/10/27 01:13:43;;;;;;;3.40;1.00;;;21.20;90.50;;;;;;10546928;28;20040;-41
2022/10/27 01:18:57;;;;;;;1.30;0.70;;;20.70;90.40;;;;;;10530180;28;20460;-40
2022/10/27 01:24:40;;;;;;;1.33;0.60;;;22.50;90.90;;;;;;10527730;28;20071;-38
2022/10/27 01:30:04;;;;;;;3.15;1.08;;;21.20;90.50;;;;;;10534636;28;20071;-39
2022/10/27 01:35:13;;;;;;;1.58;0.95;;;21.20;90.40;;;;;;10531978;28;20040;-41
2022/10/27 01:40:22;;;;;;;3.40;0.90;;;21.40;90.50;;;;;;10537413;28;20093;-39
2022/10/27 01:45:29;;;;;;;1.50;0.80;;;21.20;90.50;;;;;;10509525;28;20463;-39
2022/10/27 01:50:34;;;;;;;1.38;0.70;;;21.20;90.50;;;;;;10523562;28;20074;-41
2022/10/27 01:55:46;;;;;;;5.13;0.82;;;23.40;91.10;;;;;;10500213;28;20133;-38
2022/10/27 02:01:00;;;;;;;1.55;0.68;;;20.80;90.50;;;;;;10516471;28;20075;-42
2022/10/27 02:06:09;;;;;;;2.97;0.90;;;21.20;90.50;;;;;;10532124;28;20066;-38
2022/10/27 02:11:12;;;;;;;2.58;1.38;;;21.10;90.70;;;;;;10528909;28;20040;-39
2022/10/27 02:16:21;;;;;;;3.05;1.08;;;21.70;90.90;;;;;;10514093;28;20127;-40
2022/10/27 02:21:25;;;;;;;3.60;1.35;;;21.10;90.50;;;;;;10512237;28;20102;-41
2022/10/27 02:26:34;;;;;;;2.30;0.93;;;21.20;90.50;;;;;;10543912;28;20064;-40
2022/10/27 02:31:39;;;;;;;4.20;1.05;;;21.10;90.50;;;;;;10531192;28;20072;-40
2022/10/27 02:36:43;;;;;;;2.70;0.90;;;20.60;90.50;;;;;;10530099;28;20531;-39
2022/10/27 02:41:45;;;;;;;3.05;0.82;;;21.20;90.60;;;;;;10510197;28;20079;-40
2022/10/27 02:46:47;;;;;;;3.22;1.27;;;22.80;91.00;;;;;;10532741;28;20170;-40
2022/10/27 02:51:50;;;;;;;3.00;0.73;;;20.40;90.60;;;;;;10522020;28;20123;-40
2022/10/27 02:56:52;;;;;;;1.67;0.70;;;21.10;90.50;;;;;;10517017;28;20044;-41
2022/10/27 03:01:53;;;;;;;1.98;1.02;;;23.00;90.90;;;;;;10524251;28;20123;-42
2022/10/27 03:06:57;;;;;;;2.47;1.05;;;21.10;90.50;;;;;;10532631;28;20068;-41
2022/10/27 03:11:58;;;;;;;1.92;0.93;;;21.10;90.40;;;;;;10506368;28;20126;-41
2022/10/27 03:17:00;;;;;;;2.70;0.80;;;21.10;90.50;;;;;;10528798;28;20062;-41
2022/10/27 03:22:04;;;;;;;1.20;0.60;;;22.10;90.70;;;;;;10514115;28;20104;-40
2022/10/27 03:27:05;;;;;;;1.88;1.25;;;21.10;90.50;;;;;;10516846;28;20071;-41
2022/10/27 03:32:07;;;;;;;4.65;1.17;;;21.20;90.40;;;;;;10526259;28;20120;-41
2022/10/27 03:37:11;;;;;;;1.15;0.70;;;21.10;90.70;;;;;;10531407;28;20159;-40
2022/10/27 03:42:12;;;;;;;1.60;0.85;;;21.10;90.50;;;;;;10522308;28;20045;-39
2022/10/27 03:47:14;;;;;;;1.38;0.90;;;21.10;90.50;;;;;;10543534;28;20089;-39
2022/10/27 03:52:17;;;;;;;2.20;0.75;;;21.00;90.40;;;;;;10541330;28;20133;-41
2022/10/27 03:57:19;;;;;;;2.17;0.82;;;21.70;90.60;;;;;;10546056;28;20075;-40
2022/10/27 04:02:21;;;;;;;1.35;0.80;;;21.30;90.50;;;;;;10528649;28;20089;-40
2022/10/27 04:07:24;;;;;;;0.90;0.65;;;21.10;90.50;;;;;;10554668;28;20139;-38
2022/10/27 04:12:26;;;;;;;2.03;0.68;;;21.20;90.50;;;;;;10548269;28;20102;-40
2022/10/27 04:17:28;;;;;;;1.73;0.70;;;21.10;90.40;;;;;;10530852;28;20084;-42
2022/10/27 04:22:31;;;;;;;1.48;0.95;;;21.30;90.60;;;;;;10533755;28;20078;-43
2022/10/27 04:27:33;;;;;;;1.20;0.52;;;21.10;90.60;;;;;;10531296;28;20131;-41
2022/10/27 04:32:35;;;;;;;2.08;0.90;;;21.10;90.50;;;;;;10537173;28;20083;-43
2022/10/27 04:37:39;;;;;;;2.83;1.05;;;21.10;90.50;;;;;;10533631;28;20074;-41
2022/10/27 04:42:45;;;;;;;1.83;0.80;;;21.10;90.60;;;;;;10532227;28;20085;-41
2022/10/27 04:47:47;;;;;;;1.65;0.70;;;21.10;90.50;;;;;;10534227;28;20446;-37
2022/10/27 04:52:58;;;;;;;0.75;0.57;;;21.00;90.70;;;;;;10531692;28;20510;-38
2022/10/27 04:58:00;;;;;;;1.95;0.70;;;21.80;90.90;;;;;;10527208;28;20181;-42
2022/10/27 05:03:02;;;;;;;2.15;0.52;;;21.00;90.70;;;;;;10525756;28;20048;-39
2022/10/27 05:08:05;;;;;;;1.92;0.73;;;21.00;90.60;;;;;;10540045;28;20101;-39
2022/10/27 05:13:07;;;;;;;3.10;0.85;;;21.00;90.80;;;;;;10527244;28;20502;-42
2022/10/27 05:18:09;;;;;;;1.58;0.73;;;20.90;90.50;;;;;;10533234;28;20055;-40
2022/10/27 05:23:13;;;;;;;1.55;0.68;;;20.00;90.20;;;;;;10534823;28;20132;-40
2022/10/27 05:28:14;;;;;;;2.58;0.68;;;21.10;90.60;;;;;;10534034;28;20128;-40
2022/10/27 05:33:16;;;;;;;5.25;0.73;;;20.60;90.30;;;;;;10531803;28;20098;-38
2022/10/27 05:38:20;;;;;;;1.30;0.80;;;22.70;91.00;;;;;;10531743;28;20044;-42
2022/10/27 05:43:22;;;;;;;2.10;0.85;;;22.30;90.90;;;;;;10519583;28;20048;-40
2022/10/27 05:48:24;;;;;;;2.20;0.80;;;20.90;90.60;;;;;;10534027;28;20071;-41
2022/10/27 05:53:27;;;;;;;2.33;1.00;;;21.30;90.70;;;;;;10523743;28;20040;-42
2022/10/27 05:58:29;;;;;;;1.63;0.75;;;21.10;90.70;;;;;;10528078;28;20211;-43
2022/10/27 06:03:31;;;;;;;1.35;0.60;;;21.20;90.80;;;;;;10521261;28;20071;-42
2022/10/27 06:08:34;;;;;;;;;;;21.20;90.90;;;;;;10530869;28;20075;-40
2022/10/27 06:13:36;;;;;;;1.05;0.70;;;21.10;90.90;;;;;;10529354;28;19924;-43
2022/10/27 06:18:37;;;;;;;2.22;0.73;;;21.30;91.00;;;;;;10512997;28;20126;-38
2022/10/27 06:23:41;;;;;;;1.10;0.75;;;20.90;90.80;;;;;;10521978;28;20135;-40
2022/10/27 06:28:43;;;;;;;1.33;0.80;;;21.10;90.80;;;;;;10528387;28;20152;-37
2022/10/27 06:33:45;;;;;;;1.50;0.90;;;21.10;90.90;;;;;;10530712;28;20084;-39
2022/10/27 06:38:48;;;;;;;2.13;0.70;;;21.10;91.00;;;;;;10511901;28;20047;-39
2022/10/27 06:43:50;;;;;;;4.60;0.90;;;21.50;91.80;;;;;;10539316;28;20040;-45
2022/10/27 06:48:52;;;;;;;2.42;0.85;;;21.90;90.90;;;;;;10521076;28;20554;-45
2022/10/27 06:53:55;;;;;;;2.35;0.80;;;23.40;89.60;;;;;;10538378;28;20079;-44
2022/10/27 06:58:57;;;;;;;3.33;0.80;;;21.70;90.00;;;;;;10531411;28;20071;-39
2022/10/27 07:03:59;;;;;;;1.63;0.70;;;21.50;90.70;;;;;;10524878;28;20114;-46
2022/10/27 07:09:02;;;;;;;1.35;0.68;;;21.70;91.10;;;;;;10532448;28;20135;-46
2022/10/27 07:14:04;;;;;;;3.15;0.80;;;21.50;91.00;;;;;;10529100;28;20063;-43
2022/10/27 07:19:06;;;;;;;2.38;1.13;;;22.90;91.50;;;;;;10514250;28;20073;-42
2022/10/27 07:24:09;;;;;;;2.55;0.88;;;21.30;91.30;;;;;;10519127;28;20826;-40
2022/10/27 07:29:11;;;;;;;2.40;0.90;;;20.70;91.40;;;;;;10504614;28;20075;-41
2022/10/27 07:34:13;;;;;;;2.97;0.90;;;21.20;91.60;;;;;;10522250;28;20648;-40
2022/10/27 07:39:16;;;;;;;2.00;0.90;;;22.00;92.20;;;;;;10528192;28;20114;-38
2022/10/27 07:44:18;;;;;;;2.90;1.20;;;21.20;91.40;;;;;;10531252;28;20545;-44
2022/10/27 07:49:20;;;;;;;2.95;1.15;;;21.00;91.70;;;;;;10531452;28;20153;-41
2022/10/27 07:54:23;;;;;;;3.42;1.00;;;21.10;91.70;;;;;;10520923;28;20094;-41
2022/10/27 07:59:25;;;;;;;5.72;1.20;;;20.90;91.90;;;;;;10520248;28;20075;-40
2022/10/27 08:04:27;;;;;;;2.28;1.27;;;20.70;92.30;;;;;;10527218;28;20496;-36
2022/10/27 08:09:30;;;;;;;2.42;0.90;;;20.40;91.50;;;;;;10530650;28;20648;-41
2022/10/27 08:14:32;;;;;;;3.88;1.15;;;20.70;92.10;;;;;;10521965;28;20058;-42
2022/10/27 08:19:34;;;;;;;3.15;1.23;;;20.60;91.20;;;;;;10521600;28;20159;-40
2022/10/27 08:24:37;;;;;;;1.50;1.08;;;20.70;91.20;;;;;;10516803;28;20053;-46
2022/10/27 08:29:39;;;;;;;2.55;1.25;;;20.70;91.50;;;;;;10521131;28;20527;-41
2022/10/27 08:34:41;;;;;;;4.60;0.90;;;20.50;92.00;;;;;;10542194;28;20060;-40
2022/10/27 08:39:44;;;;;;;2.50;0.82;;;20.50;89.80;;;;;;10531966;28;20412;-41
2022/10/27 08:44:50;;;;;;;2.83;1.17;;;20.50;91.70;;;;;;10529038;28;20139;-42
2022/10/27 08:49:58;;;;;;;1.17;0.80;;;20.70;91.60;;;;;;10513085;28;20048;-44
2022/10/27 08:55:13;;;;;;;5.32;1.10;;;20.60;86.20;;;;;;10526374;28;20048;-39
2022/10/27 09:00:15;;;;;;;3.45;1.33;;;20.70;91.90;;;;;;10532206;28;20044;-40
2022/10/27 09:05:24;;;;;;;;;;;20.80;91.40;;;;;;10530816;28;20133;-44
2022/10/27 09:10:45;;;;;;;2.85;1.08;;;20.90;91.80;;;;;;10528780;28;19963;-38
2022/10/27 09:15:49;;;;;;;2.28;0.95;;;21.00;91.40;;;;;;10528307;28;20381;-40
2022/10/27 09:20:53;;;;;;;2.03;0.65;;;20.80;87.50;;;;;;10520747;28;20052;-40
2022/10/27 09:25:59;;;;;;;1.50;0.80;;;20.90;90.40;;;;;;10524700;28;20052;-35
2022/10/27 09:31:03;;;;;;;2.00;1.00;;;22.00;91.40;;;;;;10520143;28;20628;-38
2022/10/27 09:36:13;;;;;;;1.10;0.80;;;20.90;91.40;;;;;;10524968;28;20137;-45
2022/10/27 09:41:17;;;;;;;2.33;1.15;;;21.00;91.30;;;;;;10531551;28;20086;-44
2022/10/27 09:46:22;;;;;;;1.80;0.85;;;21.20;90.90;;;;;;10528552;28;20177;-42
2022/10/27 09:51:27;;;;;;;4.30;0.80;;;21.00;91.50;;;;;;10534620;28;20048;-41
2022/10/27 09:56:35;;;;;;;1.80;0.50;;;21.10;91.30;;;;;;10528096;28;20040;-40
2022/10/27 10:01:50;;;;;;;6.20;0.70;;;20.90;91.40;;;;;;10535891;28;20042;-43
2022/10/27 10:06:54;;;;;;;3.13;0.80;;;21.00;91.30;;;;;;10522871;28;20127;-41
2022/10/27 10:12:18;;;;;;;4.20;0.82;;;21.00;91.10;;;;;;10527252;28;20052;-41
2022/10/27 10:17:23;;;;;;;1.88;1.00;;;21.00;91.30;;;;;;10524041;28;20044;-43
2022/10/27 10:22:28;;;;;;;0.90;0.70;;;21.80;90.90;;;;;;10526415;28;20084;-43
2022/10/27 10:27:34;;;;;;;2.13;0.80;;;21.20;90.80;;;;;;10514689;28;20044;-42
2022/10/27 10:32:38;;;;;;;1.42;0.95;;;21.10;90.40;;;;;;10527963;28;20063;-39
2022/10/27 10:37:45;;;;;;;2.53;1.00;;;20.90;90.60;;;;;;10521698;28;20454;-43
2022/10/27 10:43:00;;;;;;;2.85;1.15;;;21.10;90.10;;;;;;10531214;28;20105;-43
2022/10/27 10:48:07;;;;;;;1.75;0.70;;;21.10;90.30;;;;;;10524622;28;20072;-44
2022/10/27 10:53:21;;;;;;;5.32;1.00;;;21.20;90.00;;;;;;10529445;28;20048;-46
2022/10/27 10:58:27;;;;;;;4.05;0.77;;;20.80;90.30;;;;;;10517732;28;20131;-43
2022/10/27 11:03:33;;;;;;;2.05;0.85;;;21.30;90.40;;;;;;10540584;28;20146;-42
2022/10/27 11:08:37;;;;;;;1.85;0.55;;;21.20;90.50;;;;;;10527924;28;20052;-40
2022/10/27 11:13:45;;;;;;;4.18;0.95;;;21.30;90.00;;;;;;10531365;28;20055;-40
2022/10/27 11:18:51;;;;;;;0.60;0.40;;;21.20;89.10;;;;;;10519571;28;20051;-41
2022/10/27 11:23:56;;;;;;;4.60;0.70;;;21.50;90.20;;;;;;10522530;28;20143;-43
2022/10/27 11:29:10;;;;;;;1.15;0.65;;;21.40;90.50;;;;;;10523490;28;20131;-42
2022/10/27 11:34:21;;;;;;;6.93;0.98;;;21.40;90.80;;;;;;10526687;28;20083;-46
2022/10/27 11:39:30;;;;;;;3.85;0.93;;;21.20;91.00;;;;;;10527704;28;20048;-41
2022/10/27 11:44:42;;;;;;;1.38;0.63;;;21.10;91.20;;;;;;10523764;28;20047;-41
2022/10/27 11:49:52;;;;;;;2.20;0.60;;;21.70;91.20;;;;;;10515202;28;20058;-38
2022/10/27 11:54:55;;;;;;;2.13;1.13;;;21.20;89.70;;;;;;10526032;28;20044;-40
2022/10/27 12:00:06;;;;;;;0.70;0.68;;;21.20;90.70;;;;;;10520083;28;20048;-37
2022/10/27 12:05:10;;;;;;;2.10;1.07;;;21.30;90.50;;;;;;10530800;28;20521;-41
2022/10/27 12:10:26;;;;;;;2.25;0.77;;;21.20;90.50;;;;;;10531905;28;20044;-44
2022/10/27 12:15:34;;;;;;;2.40;0.80;;;21.30;90.40;;;;;;10525916;28;20040;-44
2022/10/27 12:20:41;;;;;;;3.40;0.68;;;21.40;89.10;;;;;;10525107;28;20060;-44
2022/10/27 12:25:49;;;;;;;1.65;0.68;;;21.40;90.30;;;;;;10532112;28;20131;-40
2022/10/27 12:30:54;;;;;;;2.15;0.80;;;21.50;90.00;;;;;;10533023;28;20036;-43
2022/10/27 12:36:04;;;;;;;3.97;1.05;;;21.50;90.10;;;;;;10529450;28;20040;-39
2022/10/27 12:41:11;;;;;;;2.45;0.80;;;21.40;89.10;;;;;;10532448;28;20048;-41
2022/10/27 12:46:40;;;;;;;3.60;1.00;;;21.60;89.10;;;;;;10533237;28;20087;-43
2022/10/27 12:51:51;;;;;;;3.83;1.00;;;21.60;89.80;;;;;;10518161;28;20097;-43
2022/10/27 12:57:03;;;;;;;10.05;1.13;;;21.70;89.30;;;;;;10522706;28;20098;-45
2022/10/27 13:02:11;;;;;;;1.63;0.98;;;21.80;89.40;;;;;;10514434;28;20040;-41
2022/10/27 13:07:45;;;;;;;1.50;0.80;;;22.30;89.50;;;;;;10538008;28;20097;-46
2022/10/27 13:13:09;;;;;;;1.98;0.85;;;22.10;88.30;;;;;;10526419;28;20053;-38
2022/10/27 13:18:42;;;;;;;2.75;0.95;;;22.20;87.60;;;;;;10523651;28;20048;-42
2022/10/27 13:23:52;;;;;;;3.97;1.15;;;22.20;87.30;;;;;;10534419;28;20162;-40
2022/10/27 13:28:58;;;;;;;2.88;0.90;;;22.30;87.20;;;;;;10536187;28;20079;-42
2022/10/27 13:34:18;;;;;;;4.05;1.20;;;23.00;87.00;;;;;;10524102;28;20427;-44
2022/10/27 13:39:47;;;;;;;4.55;1.73;;;22.30;87.50;;;;;;10518828;28;20079;-43
2022/10/27 13:44:49;;;;;;;4.15;1.10;;;22.40;86.90;;;;;;10476964;28;20056;-44
2022/10/27 13:49:54;;;;;;;17.02;2.10;;;22.70;85.70;;;;;;10529324;28;20039;-43
2022/10/27 13:55:02;;;;;;;4.00;1.05;;;22.60;86.40;;;;;;10526803;28;20496;-45
2022/10/27 14:00:10;;;;;;;11.63;2.00;;;22.50;86.90;;;;;;10528863;28;20550;-43
2022/10/27 14:05:32;;;;;;;5.05;1.20;;;22.70;86.30;;;;;;10526048;28;20479;-42
2022/10/27 14:10:34;;;;;;;5.00;1.17;;;22.90;85.30;;;;;;10532638;28;20044;-40
2022/10/27 14:15:36;;;;;;;9.45;1.73;;;22.90;84.40;;;;;;10524376;28;20151;-40
2022/10/27 14:20:41;;;;;;;4.30;2.08;;;23.00;84.20;;;;;;10536011;28;20143;-36
2022/10/27 14:25:45;;;;;;;6.50;2.13;;;23.30;83.70;;;;;;10525242;28;20048;-44
2022/10/27 14:31:07;;;;;;;7.13;1.33;;;23.20;83.10;;;;;;10526968;28;20062;-44
2022/10/27 14:36:19;;;;;;;5.83;1.40;;;23.10;83.60;;;;;;10533092;28;20147;-46
2022/10/27 14:41:24;;;;;;;5.53;1.67;;;23.20;83.50;;;;;;10527343;28;20048;-35
2022/10/27 14:46:29;;;;;;;10.13;2.00;;;23.40;84.20;;;;;;10532989;28;20111;-43
2022/10/27 14:51:35;;;;;;;9.00;2.58;;;23.50;83.10;;;;;;10524001;28;20123;-43
2022/10/27 14:56:37;;;;;;;4.85;2.05;;;23.50;82.60;;;;;;10518635;28;20453;-35
2022/10/27 15:01:40;;;;;;;11.57;1.40;;;23.50;82.90;;;;;;10524680;28;20544;-42
2022/10/27 15:06:46;;;;;;;11.95;1.83;;;23.80;84.30;;;;;;10528045;28;20079;-40
2022/10/27 15:11:47;;;;;;;4.05;1.17;;;24.10;82.90;;;;;;10527934;28;20113;-50
2022/10/27 15:16:50;;;;;;;;;;;24.00;82.20;;;;;;10523986;28;20143;-45
2022/10/27 15:21:54;;;;;;;4.90;1.40;;;23.80;80.90;;;;;;10524850;28;20010;-47
2022/10/27 15:26:56;;;;;;;5.07;1.90;;;23.90;80.70;;;;;;10528688;28;20059;-45
2022/10/27 15:31:59;;;;;;;4.32;1.85;;;24.40;79.10;;;;;;10529764;28;20109;-45
2022/10/27 15:37:26;;;;;;;3.38;1.10;;;23.90;81.10;;;;;;10528934;28;20496;-44
2022/10/27 15:42:31;;;;;;;13.07;1.88;;;23.70;82.80;;;;;;10509656;28;20486;-46
2022/10/27 15:47:40;;;;;;;4.05;1.33;;;23.70;83.60;;;;;;10514451;28;20054;-45
2022/10/27 15:52:44;;;;;;;4.32;1.70;;;23.50;84.10;;;;;;10523955;28;20047;-44
2022/10/27 15:57:47;;;;;;;2.75;1.70;;;23.30;85.00;;;;;;10536470;28;20136;-43
2022/10/27 16:02:52;;;;;;;9.63;3.40;;;23.00;86.70;;;;;;10538188;28;20485;-43
2022/10/27 16:07:56;;;;;;;7.30;1.80;;;22.70;88.50;;;;;;10525960;28;20040;-49
2022/10/27 16:12:58;;;;;;;5.25;1.52;;;22.50;89.80;;;;;;10529227;28;20076;-44
2022/10/27 16:18:00;;;;;;;3.22;1.35;;;22.80;88.70;;;;;;10521069;28;20051;-39
2022/10/27 16:23:05;;;;;;;2.47;1.10;;;23.10;86.60;;;;;;10526995;28;20098;-43
2022/10/27 16:28:16;;;;;;;2.72;1.25;;;23.10;86.40;;;;;;10517785;28;20357;-42
2022/10/27 16:33:20;;;;;;;2.38;1.17;;;23.00;86.50;;;;;;10531693;28;20098;-43
2022/10/27 16:38:23;;;;;;;5.10;1.40;;;23.00;86.70;;;;;;10530053;28;20083;-44
2022/10/27 16:43:35;;;;;;;10.52;3.00;;;22.90;86.70;;;;;;10528817;28;20082;-42
2022/10/27 16:48:37;;;;;;;1.58;1.00;;;22.90;87.10;;;;;;10531256;28;20109;-43
2022/10/27 16:53:40;;;;;;;1.77;1.30;;;22.90;86.80;;;;;;10540560;28;20159;-44
2022/10/27 16:58:44;;;;;;;8.25;2.10;;;22.90;87.10;;;;;;10533962;28;20113;-48
2022/10/27 17:03:46;;;;;;;5.15;1.58;;;22.50;89.20;;;;;;10531780;28;20048;-41
2022/10/27 17:08:49;;;;;;;4.97;1.75;;;22.60;88.60;;;;;;10526445;28;20497;-47
2022/10/27 17:13:52;;;;;;;6.05;1.95;;;22.60;88.90;;;;;;10532962;28;20089;-44
2022/10/27 17:18:54;;;;;;;5.15;1.20;;;22.60;88.60;;;;;;10529338;28;20053;-38
2022/10/27 17:23:57;;;;;;;3.22;1.10;;;22.60;88.80;;;;;;10537169;28;20097;-46
2022/10/27 17:28:59;;;;;;;2.63;1.55;;;22.70;89.10;;;;;;10528776;28;20138;-44
2022/10/27 17:34:01;;;;;;;4.15;1.50;;;22.80;88.20;;;;;;10532180;28;20608;-44
2022/10/27 17:39:04;;;;;;;3.53;1.23;;;22.50;89.30;;;;;;10539858;28;20489;-44
2022/10/27 17:44:06;;;;;;;3.28;1.75;;;22.50;89.70;;;;;;10527969;28;20566;-45
2022/10/27 17:49:09;;;;;;;3.90;1.42;;;22.50;89.80;;;;;;10529934;28;20419;-44
2022/10/27 17:54:15;;;;;;;3.80;1.25;;;22.60;89.20;;;;;;10526138;28;20059;-47
2022/10/27 17:59:18;;;;;;;3.40;1.65;;;22.60;89.40;;;;;;10524715;28;20047;-48
2022/10/27 18:04:20;;;;;;;1.80;1.38;;;22.70;88.70;;;;;;10523654;28;20047;-43
2022/10/27 18:09:24;;;;;;;3.63;1.30;;;22.90;89.10;;;;;;10528502;28;20048;-44
2022/10/27 18:14:26;;;;;;;4.55;1.45;;;22.90;88.30;;;;;;10517606;28;20444;-49
2022/10/27 18:19:28;;;;;;;4.88;1.50;;;22.80;88.30;;;;;;10512033;28;20040;-46
2022/10/27 18:24:33;;;;;;;3.47;1.23;;;22.90;88.30;;;;;;10515598;28;20079;-49
2022/10/27 18:29:37;;;;;;;3.15;1.52;;;22.80;88.40;;;;;;10518852;28;20580;-46
2022/10/27 18:34:39;;;;;;;2.30;1.23;;;22.80;88.60;;;;;;10507597;28;20445;-43
2022/10/27 18:39:42;;;;;;;6.18;1.60;;;22.80;88.70;;;;;;10520973;28;20048;-44
2022/10/27 18:44:44;;;;;;;3.28;1.85;;;22.70;88.70;;;;;;10524643;28;20043;-43
2022/10/27 18:49:46;;;;;;;;;;;22.70;89.10;;;;;;10523464;28;20044;-38
2022/10/27 18:54:49;;;;;;;4.63;1.43;;;22.70;89.20;;;;;;10525131;28;19920;-44
2022/10/27 18:59:51;;;;;;;10.43;1.80;;;22.60;89.70;;;;;;10514600;28;20076;-42
2022/10/27 19:04:53;;;;;;;7.63;1.73;;;22.60;90.00;;;;;;10522644;28;20053;-36
2022/10/27 19:09:56;;;;;;;3.25;1.52;;;22.50;90.10;;;;;;10526918;28;20131;-42
2022/10/27 19:14:58;;;;;;;4.07;1.67;;;22.40;90.60;;;;;;10522995;28;20071;-48
2022/10/27 19:20:00;;;;;;;8.25;2.70;;;22.40;90.60;;;;;;10516570;28;20622;-44
2022/10/27 19:25:03;;;;;;;3.67;1.63;;;22.30;90.30;;;;;;10510322;28;20041;-42
2022/10/27 19:30:06;;;;;;;4.47;1.42;;;22.30;90.50;;;;;;10520579;28;20489;-49
2022/10/27 19:35:08;;;;;;;4.47;1.77;;;22.40;90.50;;;;;;10522618;28;20106;-44
2022/10/27 19:40:11;;;;;;;4.82;1.35;;;22.20;90.90;;;;;;10526191;28;20079;-50
2022/10/27 19:45:13;;;;;;;7.55;1.92;;;22.30;90.70;;;;;;10529279;28;20097;-44
2022/10/27 19:50:15;;;;;;;5.82;2.00;;;22.40;90.10;;;;;;10517724;28;20064;-43
2022/10/27 19:55:19;;;;;;;5.25;2.22;;;22.50;89.80;;;;;;10528946;28;20044;-42
2022/10/27 20:00:21;;;;;;;15.50;4.03;;;22.60;89.10;;;;;;10528165;28;20044;-46
2022/10/27 20:05:23;;;;;;;3.67;1.58;;;22.60;88.90;;;;;;10516079;28;20120;-46
2022/10/27 20:10:26;;;;;;;7.05;2.03;;;22.60;88.70;;;;;;10527947;28;20504;-47
2022/10/27 20:15:28;;;;;;;7.93;1.92;;;22.60;88.70;;;;;;10527414;28;20078;-46
2022/10/27 20:20:30;;;;;;;5.85;1.92;;;22.60;88.60;;;;;;10531089;28;20056;-45
2022/10/27 20:25:33;;;;;;;5.05;2.35;;;22.60;88.50;;;;;;10525177;28;20071;-47
2022/10/27 20:30:36;;;;;;;4.57;2.00;;;22.60;88.40;;;;;;10520346;28;20096;-45
2022/10/27 20:35:38;;;;;;;7.72;2.20;;;22.50;88.30;;;;;;10512992;28;20123;-48
2022/10/27 20:40:41;;;;;;;9.20;2.65;;;22.50;88.30;;;;;;10535313;28;20052;-45
2022/10/27 20:45:43;;;;;;;5.40;2.03;;;22.50;88.20;;;;;;10534996;28;20443;-47
2022/10/27 20:50:54;;;;;;;8.05;2.00;;;22.50;88.30;;;;;;10537694;28;20135;-44
2022/10/27 20:55:58;;;;;;;5.47;1.85;;;22.50;88.20;;;;;;10531435;28;20295;-47
2022/10/27 21:01:14;;;;;;;6.85;1.70;;;22.50;88.20;;;;;;10535426;28;20083;-50
2022/10/27 21:06:16;;;;;;;7.18;2.70;;;22.50;88.50;;;;;;10534309;28;20528;-47
2022/10/27 21:11:19;;;;;;;11.10;2.05;;;22.50;88.20;;;;;;10532144;28;20048;-43
2022/10/27 21:16:22;;;;;;;7.40;2.55;;;22.50;88.10;;;;;;10529348;28;20068;-47
2022/10/27 21:21:26;;;;;;;4.50;2.00;;;22.40;88.70;;;;;;10525453;28;20156;-45
2022/10/27 21:26:29;;;;;;;5.88;1.90;;;22.40;88.40;;;;;;10527065;28;20447;-45
2022/10/27 21:31:32;;;;;;;8.35;2.38;;;22.30;88.70;;;;;;10529231;28;20446;-42
2022/10/27 21:36:34;;;;;;;3.88;2.00;;;22.40;88.90;;;;;;10520732;28;20046;-47
2022/10/27 21:41:37;;;;;;;4.88;2.17;;;22.40;88.30;;;;;;10532564;28;20056;-48
2022/10/27 21:46:39;;;;;;;7.53;2.08;;;22.40;88.20;;;;;;10510844;28;20055;-45
2022/10/27 21:51:41;;;;;;;4.82;1.80;;;22.40;88.20;;;;;;10521205;28;20546;-46
2022/10/27 21:56:44;;;;;;;5.65;2.00;;;22.40;88.10;;;;;;10522210;28;20040;-46
2022/10/27 22:01:46;;;;;;;6.53;2.70;;;22.50;88.10;;;;;;10514748;28;20071;-48
2022/10/27 22:06:48;;;;;;;7.50;2.22;;;22.40;88.10;;;;;;10518815;28;20068;-48
2022/10/27 22:11:51;;;;;;;4.30;1.65;;;22.40;87.80;;;;;;10514203;28;20048;-44
2022/10/27 22:16:53;;;;;;;4.57;2.10;;;22.40;88.00;;;;;;10522028;28;20052;-47
2022/10/27 22:21:55;;;;;;;5.18;2.45;;;22.40;88.00;;;;;;10517375;28;20083;-38
2022/10/27 22:26:58;;;;;;;3.47;1.70;;;22.40;88.00;;;;;;10519112;28;20052;-44
2022/10/27 22:32:00;;;;;;;6.90;2.17;;;22.40;88.20;;;;;;10528694;28;20105;-42
2022/10/27 22:37:02;;;;;;;3.58;1.95;;;22.40;88.20;;;;;;10529156;28;20052;-47
2022/10/27 22:42:06;;;;;;;3.75;1.98;;;22.40;88.30;;;;;;10529634;28;20083;-44
2022/10/27 22:47:08;;;;;;;4.03;2.15;;;22.30;88.30;;;;;;10514001;28;20160;-44
2022/10/27 22:52:10;;;;;;;5.85;1.95;;;22.30;88.40;;;;;;10530606;28;20044;-48
2022/10/27 22:57:14;;;;;;;;;;;22.40;88.10;;;;;;10527973;28;20045;-47
2022/10/27 23:02:15;;;;;;;6.05;2.25;;;22.40;88.10;;;;;;10526065;28;20377;-47
2022/10/27 23:07:17;;;;;;;3.70;2.35;;;22.40;88.20;;;;;;10504286;28;20473;-47
2022/10/27 23:12:20;;;;;;;3.65;1.92;;;22.40;88.10;;;;;;10528355;28;20071;-44
2022/10/27 23:17:22;;;;;;;3.70;2.03;;;22.30;88.20;;;;;;10517633;28;20076;-43
2022/10/27 23:22:24;;;;;;;5.15;2.22;;;22.30;88.30;;;;;;10517057;28;20055;-43
2022/10/27 23:27:27;;;;;;;4.28;2.00;;;22.30;88.40;;;;;;10525542;28;20044;-46
2022/10/27 23:32:29;;;;;;;5.00;2.55;;;22.30;88.50;;;;;;10512960;28;20058;-43
2022/10/27 23:37:31;;;;;;;6.80;2.10;;;22.30;88.50;;;;;;10531001;28;20121;-46
2022/10/27 23:42:35;;;;;;;3.85;1.63;;;22.30;88.60;;;;;;10526450;28;20481;-48
2022/10/27 23:47:36;;;;;;;6.15;2.22;;;22.30;88.60;;;;;;10527687;28;20130;-45
2022/10/27 23:52:39;;;;;;;2.15;1.90;;;22.30;88.80;;;;;;10532409;28;20093;-50
2022/10/27 23:57:42;;;;;;;4.15;1.98;;;22.30;88.70;;;;;;10532442;28;20056;-41
